createdAt,value
2022-12-07T00:01:44.107Z,0.41
2022-12-07T00:04:14.852Z,0.4
2022-12-07T00:06:45.288Z,0.4
2022-12-07T00:09:15.983Z,0.4
2022-12-07T00:11:46.828Z,0.41
2022-12-07T00:14:17.196Z,0.41
2022-12-07T00:16:47.992Z,0.4
2022-12-07T00:19:18.685Z,0.4
2022-12-07T00:21:49.165Z,0.4
2022-12-07T00:24:19.887Z,0.39
2022-12-07T00:26:50.639Z,0.39
2022-12-07T00:29:21.368Z,0.38
2022-12-07T00:31:52.201Z,0.38
2022-12-07T00:34:22.859Z,0.37
2022-12-07T00:36:53.614Z,0.37
2022-12-07T00:39:24.341Z,0.37
2022-12-07T00:41:55.106Z,0.36
2022-12-07T00:44:25.914Z,0.37
2022-12-07T00:46:56.330Z,0.36
2022-12-07T00:49:27.079Z,0.36
2022-12-07T00:51:57.495Z,0.36
2022-12-07T00:54:28.287Z,0.35
2022-12-07T00:56:58.987Z,0.35
2022-12-07T00:59:29.736Z,0.34
2022-12-07T01:02:00.554Z,0.34
2022-12-07T01:04:31.245Z,0.37
2022-12-07T01:07:02.019Z,0.33
2022-12-07T01:09:32.751Z,0.34
2022-12-07T01:12:03.515Z,0.31
2022-12-07T01:14:34.269Z,0.32
2022-12-07T01:17:05.069Z,0.31
2022-12-07T01:19:35.780Z,0.33
2022-12-07T01:22:06.548Z,0.32
2022-12-07T01:24:37.319Z,0.31
2022-12-07T01:27:08.061Z,0.31
2022-12-07T01:29:38.810Z,0.32
2022-12-07T01:32:09.579Z,0.31
2022-12-07T01:34:40.330Z,0.31
2022-12-07T01:37:11.098Z,0.31
2022-12-07T01:39:41.931Z,0.32
2022-12-07T01:42:12.621Z,0.32
2022-12-07T01:44:43.385Z,0.3
2022-12-07T01:47:14.120Z,0.3
2022-12-07T01:49:44.976Z,0.29
2022-12-07T01:52:15.646Z,0.3
2022-12-07T01:54:46.429Z,0.3
2022-12-07T01:57:17.156Z,0.29
2022-12-07T01:59:47.903Z,0.3
2022-12-07T02:02:18.754Z,0.35
2022-12-07T02:04:49.400Z,0.35
2022-12-07T02:07:20.178Z,0.35
2022-12-07T02:09:50.932Z,0.34
2022-12-07T02:12:21.703Z,0.35
2022-12-07T02:14:52.457Z,0.36
2022-12-07T02:17:23.229Z,0.36
2022-12-07T02:19:53.982Z,0.35
2022-12-07T02:22:24.761Z,0.36
2022-12-07T02:24:55.572Z,0.37
2022-12-07T02:27:26.267Z,0.39
2022-12-07T02:29:57.253Z,0.36
2022-12-07T02:32:27.797Z,0.35
2022-12-07T02:34:58.562Z,0.34
2022-12-07T02:37:29.324Z,0.38
2022-12-07T02:40:00.589Z,0.36
2022-12-07T02:42:30.834Z,0.36
2022-12-07T02:45:01.594Z,0.34
2022-12-07T02:47:32.351Z,0.33
2022-12-07T02:50:03.314Z,0.33
2022-12-07T02:52:33.868Z,0.32
2022-12-07T02:55:04.605Z,0.35
2022-12-07T02:57:35.366Z,0.35
2022-12-07T03:00:06.424Z,0.36
2022-12-07T03:02:36.933Z,0.36
2022-12-07T03:05:07.613Z,0.34
2022-12-07T03:07:38.410Z,0.34
2022-12-07T03:10:09.118Z,0.34
2022-12-07T03:12:39.873Z,0.36
2022-12-07T03:15:10.638Z,0.33
2022-12-07T03:17:41.395Z,0.35
2022-12-07T03:20:12.149Z,0.33
2022-12-07T03:22:42.915Z,0.34
2022-12-07T03:25:13.670Z,0.34
2022-12-07T03:27:44.435Z,0.36
2022-12-07T03:30:15.180Z,0.34
2022-12-07T03:32:45.946Z,0.34
2022-12-07T03:35:16.682Z,0.35
2022-12-07T03:37:47.463Z,0.34
2022-12-07T03:40:18.197Z,0.35
2022-12-07T03:42:48.964Z,0.36
2022-12-07T03:45:19.713Z,0.36
2022-12-07T03:47:50.481Z,0.37
2022-12-07T03:50:21.231Z,0.34
2022-12-07T03:52:52.063Z,0.37
2022-12-07T03:55:22.739Z,0.34
2022-12-07T03:57:53.511Z,0.34
2022-12-07T04:00:24.257Z,0.32
2022-12-07T04:02:55.118Z,0.32
2022-12-07T04:05:25.060Z,0.44
2022-12-07T04:07:55.314Z,0.36
2022-12-07T04:10:25.937Z,0.34
2022-12-07T04:12:56.712Z,0.31
2022-12-07T04:15:27.472Z,0.32
2022-12-07T04:17:58.264Z,0.32
2022-12-07T04:20:29.018Z,0.34
2022-12-07T04:22:59.816Z,0.34
2022-12-07T04:25:30.580Z,0.34
2022-12-07T04:28:01.379Z,0.34
2022-12-07T04:30:32.143Z,0.35
2022-12-07T04:33:02.931Z,0.36
2022-12-07T04:35:33.814Z,0.34
2022-12-07T04:38:04.511Z,0.33
2022-12-07T04:40:35.265Z,0.35
2022-12-07T04:43:06.060Z,0.35
2022-12-07T04:45:36.856Z,0.34
2022-12-07T04:48:07.624Z,0.38
2022-12-07T04:50:43.070Z,0.34
2022-12-07T04:53:09.187Z,0.35
2022-12-07T04:55:39.940Z,0.35
2022-12-07T04:58:10.724Z,0.35
2022-12-07T05:00:41.571Z,0.34
2022-12-07T05:03:12.282Z,0.35
2022-12-07T05:05:43.055Z,0.37
2022-12-07T05:08:13.915Z,0.39
2022-12-07T05:10:44.601Z,0.37
2022-12-07T05:13:15.385Z,0.42
2022-12-07T05:15:46.153Z,0.46
2022-12-07T05:18:17.025Z,0.51
2022-12-07T05:20:47.688Z,0.41
2022-12-07T05:23:18.495Z,0.39
2022-12-07T05:25:49.212Z,0.38
2022-12-07T05:28:19.994Z,0.36
2022-12-07T05:30:53.448Z,0.35
2022-12-07T05:33:21.527Z,0.35
2022-12-07T05:35:52.284Z,0.37
2022-12-07T05:38:23.110Z,0.36
2022-12-07T05:40:53.957Z,0.36
2022-12-07T05:43:24.610Z,0.34
2022-12-07T05:45:55.435Z,0.34
2022-12-07T05:48:26.200Z,0.35
2022-12-07T05:50:56.977Z,0.32
2022-12-07T05:53:27.819Z,0.32
2022-12-07T05:55:58.554Z,0.32
2022-12-07T05:58:29.361Z,0.34
2022-12-07T06:01:00.157Z,0.3
2022-12-07T06:03:31.056Z,0.31
2022-12-07T06:06:01.977Z,0.31
2022-12-07T06:08:32.712Z,0.34
2022-12-07T06:11:03.392Z,0.33
2022-12-07T06:13:34.302Z,0.31
2022-12-07T06:16:05.043Z,0.31
2022-12-07T06:18:35.822Z,0.31
2022-12-07T06:21:06.362Z,0.33
2022-12-07T06:23:37.166Z,0.31
2022-12-07T06:26:07.957Z,0.33
2022-12-07T06:28:38.755Z,0.35
2022-12-07T06:31:13.589Z,0.35
2022-12-07T06:33:40.379Z,0.35
2022-12-07T06:36:11.174Z,0.33
2022-12-07T06:38:41.955Z,0.35
2022-12-07T06:41:12.705Z,0.36
2022-12-07T06:43:43.499Z,0.34
2022-12-07T06:46:14.350Z,0.35
2022-12-07T06:48:45.189Z,0.32
2022-12-07T06:51:15.904Z,0.32
2022-12-07T06:53:46.690Z,0.35
2022-12-07T06:56:17.495Z,0.33
2022-12-07T06:58:48.292Z,0.32
2022-12-07T07:01:19.180Z,0.33
2022-12-07T07:03:49.890Z,0.32
2022-12-07T07:06:20.702Z,0.35
2022-12-07T07:08:51.585Z,0.39
2022-12-07T07:11:22.320Z,0.35
2022-12-07T07:13:53.147Z,0.34
2022-12-07T07:16:23.964Z,0.32
2022-12-07T07:18:54.723Z,0.33
2022-12-07T07:21:25.554Z,0.33
2022-12-07T07:23:56.340Z,0.34
2022-12-07T07:26:27.157Z,0.35
2022-12-07T07:28:57.953Z,0.36
2022-12-07T07:31:28.823Z,0.37
2022-12-07T07:33:59.612Z,0.36
2022-12-07T07:36:30.458Z,0.38
2022-12-07T07:39:01.308Z,0.36
2022-12-07T07:41:32.038Z,0.36
2022-12-07T07:44:02.879Z,0.37
2022-12-07T07:46:33.684Z,0.37
2022-12-07T07:49:04.456Z,0.36
2022-12-07T07:51:35.290Z,0.36
2022-12-07T07:54:06.088Z,0.34
2022-12-07T07:56:36.907Z,0.36
2022-12-07T07:59:07.813Z,0.35
2022-12-07T08:01:38.566Z,0.36
2022-12-07T08:04:09.384Z,0.36
2022-12-07T08:06:40.233Z,0.35
2022-12-07T08:09:11.058Z,0.34
2022-12-07T08:11:41.990Z,0.32
2022-12-07T08:14:12.719Z,0.31
2022-12-07T08:16:43.566Z,0.31
2022-12-07T08:19:14.385Z,0.31
2022-12-07T08:21:45.252Z,0.3
2022-12-07T08:24:16.069Z,0.32
2022-12-07T08:26:46.904Z,0.29
2022-12-07T08:29:17.706Z,0.31
2022-12-07T08:31:48.542Z,0.3
2022-12-07T08:34:19.363Z,0.3
2022-12-07T08:36:50.210Z,0.29
2022-12-07T08:39:31.392Z,0.3
2022-12-07T08:41:51.832Z,0.29
2022-12-07T08:44:22.648Z,0.29
2022-12-07T08:46:53.555Z,0.28
2022-12-07T08:49:24.261Z,0.3
2022-12-07T08:51:55.097Z,0.32
2022-12-07T08:54:25.897Z,0.31
2022-12-07T08:56:59.330Z,0.31
2022-12-07T08:59:27.516Z,0.32
2022-12-07T09:01:58.424Z,0.33
2022-12-07T09:04:29.349Z,0.35
2022-12-07T09:07:00.081Z,0.33
2022-12-07T09:09:30.748Z,0.33
2022-12-07T09:12:01.629Z,0.31
2022-12-07T09:14:32.400Z,0.32
2022-12-07T09:17:03.172Z,0.31
2022-12-07T09:19:33.971Z,0.29
2022-12-07T09:22:04.795Z,0.31
2022-12-07T09:24:35.585Z,0.3
2022-12-07T09:27:06.396Z,0.29
2022-12-07T09:29:37.187Z,0.3
2022-12-07T09:32:11.607Z,0.27
2022-12-07T09:34:38.944Z,0.28
2022-12-07T09:37:09.762Z,0.32
2022-12-07T09:39:43.440Z,0.33
2022-12-07T09:42:11.206Z,0.31
2022-12-07T09:44:41.999Z,0.3
2022-12-07T09:47:12.846Z,0.3
2022-12-07T09:49:43.602Z,0.33
2022-12-07T09:52:14.426Z,0.32
2022-12-07T09:54:45.224Z,0.33
2022-12-07T09:57:16.110Z,0.33
2022-12-07T09:59:46.790Z,0.3
2022-12-07T10:02:17.661Z,0.3
2022-12-07T10:04:48.435Z,0.3
2022-12-07T10:07:19.237Z,0.3
2022-12-07T10:09:49.774Z,0.35
2022-12-07T10:12:20.610Z,0.3
2022-12-07T10:15:06.765Z,0.28
2022-12-07T10:17:22.128Z,0.27
2022-12-07T10:19:52.911Z,0.26
2022-12-07T10:22:28.835Z,0.25
2022-12-07T10:24:54.496Z,0.26
2022-12-07T10:27:25.300Z,0.28
2022-12-07T10:29:56.091Z,0.27
2022-12-07T10:32:26.981Z,0.3
2022-12-07T10:34:57.677Z,0.29
2022-12-07T10:37:28.486Z,0.29
2022-12-07T10:39:59.261Z,0.28
2022-12-07T10:42:30.121Z,0.24
2022-12-07T10:45:01.308Z,0.27
2022-12-07T10:47:31.805Z,0.26
2022-12-07T10:50:02.377Z,0.26
2022-12-07T10:52:33.167Z,0.23
2022-12-07T10:55:04.244Z,0.26
2022-12-07T10:57:34.726Z,0.27
2022-12-07T11:00:05.123Z,0.25
2022-12-07T11:02:36.047Z,0.26
2022-12-07T11:05:06.727Z,0.26
2022-12-07T11:07:37.633Z,0.24
2022-12-07T11:10:09.684Z,0.24
2022-12-07T11:12:38.916Z,0.24
2022-12-07T11:15:09.662Z,0.23
2022-12-07T11:17:40.419Z,0.23
2022-12-07T11:20:11.159Z,0.21
2022-12-07T11:22:41.962Z,0.2
2022-12-07T11:25:12.680Z,0.19
2022-12-07T11:27:43.436Z,0.19
2022-12-07T11:30:14.144Z,0.19
2022-12-07T11:32:44.904Z,0.18
2022-12-07T11:35:15.642Z,0.18
2022-12-07T11:37:46.492Z,0.2
2022-12-07T11:40:17.113Z,0.21
2022-12-07T11:42:47.863Z,0.2
2022-12-07T11:45:18.584Z,0.2
2022-12-07T11:47:49.338Z,0.2
2022-12-07T11:50:20.682Z,0.19
2022-12-07T11:52:50.833Z,0.21
2022-12-07T11:55:23.691Z,0.22
2022-12-07T11:57:52.291Z,0.21
2022-12-07T12:00:23.081Z,0.21
2022-12-07T12:02:53.932Z,0.21
2022-12-07T12:05:24.482Z,0.19
2022-12-07T12:10:25.962Z,0.19
2022-12-07T12:15:27.497Z,0.19
2022-12-07T12:17:58.179Z,0.18
2022-12-07T12:20:29.003Z,0.17
2022-12-07T12:22:59.656Z,0.17
2022-12-07T12:25:30.404Z,0.18
2022-12-07T12:28:01.117Z,0.18
2022-12-07T12:30:31.852Z,0.18
2022-12-07T12:33:02.586Z,0.17
2022-12-07T12:35:33.366Z,0.19
2022-12-07T12:38:04.086Z,0.18
2022-12-07T12:40:34.784Z,0.19
2022-12-07T12:43:05.529Z,0.18
2022-12-07T12:45:36.377Z,0.17
2022-12-07T12:48:07.050Z,0.18
2022-12-07T12:50:37.770Z,0.17
2022-12-07T12:53:08.452Z,0.17
2022-12-07T12:55:39.157Z,0.18
2022-12-07T12:58:09.891Z,0.19
2022-12-07T13:00:40.627Z,0.17
2022-12-07T13:03:13.263Z,0.17
2022-12-07T13:05:42.122Z,0.17
2022-12-07T13:08:12.893Z,0.19
2022-12-07T13:10:43.611Z,0.18
2022-12-07T13:13:14.368Z,0.18
2022-12-07T13:15:45.108Z,0.19
2022-12-07T13:18:15.858Z,0.19
2022-12-07T13:20:46.610Z,0.2
2022-12-07T13:23:17.341Z,0.21
2022-12-07T13:25:48.174Z,0.22
2022-12-07T13:28:18.835Z,0.2
2022-12-07T13:30:49.598Z,0.21
2022-12-07T13:33:20.358Z,0.24
2022-12-07T13:35:51.038Z,0.25
2022-12-07T13:38:21.789Z,0.22
2022-12-07T13:40:52.536Z,0.21
2022-12-07T13:43:23.272Z,0.21
2022-12-07T13:45:54.095Z,0.23
2022-12-07T13:48:24.755Z,0.21
2022-12-07T13:50:55.495Z,0.22
2022-12-07T13:53:26.272Z,0.2
2022-12-07T13:55:57.004Z,0.21
2022-12-07T13:58:27.730Z,0.2
2022-12-07T14:00:58.599Z,0.21
2022-12-07T14:03:29.295Z,0.21
2022-12-07T14:06:00.036Z,0.21
2022-12-07T14:08:30.739Z,0.2
2022-12-07T14:11:01.378Z,0.2
2022-12-07T14:13:32.202Z,0.18
2022-12-07T14:16:02.843Z,0.19
2022-12-07T14:18:33.571Z,0.21
2022-12-07T14:21:04.325Z,0.21
2022-12-07T14:23:35.139Z,0.21
2022-12-07T14:26:05.774Z,0.22
2022-12-07T14:28:36.631Z,0.22
2022-12-07T14:31:07.276Z,0.23
2022-12-07T14:33:37.975Z,0.24
2022-12-07T14:36:08.726Z,0.26
2022-12-07T14:38:39.443Z,0.25
2022-12-07T14:41:10.173Z,0.26
2022-12-07T14:43:54.136Z,0.27
2022-12-07T14:46:11.731Z,0.29
2022-12-07T14:53:43.803Z,0.28
2022-12-07T14:56:14.514Z,0.28
2022-12-07T14:58:45.221Z,0.27
2022-12-07T15:01:15.955Z,0.26
2022-12-07T15:03:46.797Z,0.24
2022-12-07T15:06:17.419Z,0.22
2022-12-07T15:08:48.118Z,0.22
2022-12-07T15:11:18.840Z,0.21
2022-12-07T15:13:49.580Z,0.2
2022-12-07T15:16:20.378Z,0.21
2022-12-07T15:19:19.370Z,0.2
2022-12-07T15:21:21.786Z,0.2
2022-12-07T15:23:52.517Z,0.2
2022-12-07T15:26:23.287Z,0.22
2022-12-07T15:28:54.003Z,0.23
2022-12-07T15:31:53.840Z,0.26
2022-12-07T15:33:55.493Z,0.26
2022-12-07T15:36:26.250Z,0.24
2022-12-07T15:39:13.649Z,0.24
2022-12-07T15:41:27.778Z,0.22
2022-12-07T15:43:58.503Z,0.23
2022-12-07T15:46:29.421Z,0.23
2022-12-07T15:49:00.005Z,0.22
2022-12-07T15:51:30.776Z,0.22
2022-12-07T15:54:01.516Z,0.22
2022-12-07T15:56:32.285Z,0.22
2022-12-07T15:59:03.041Z,0.26
2022-12-07T16:01:33.912Z,0.26
2022-12-07T16:04:04.613Z,0.28
2022-12-07T16:06:35.321Z,0.29
2022-12-07T16:09:06.066Z,0.27
2022-12-07T16:11:36.921Z,0.29
2022-12-07T16:14:07.592Z,0.28
2022-12-07T16:16:38.409Z,0.29
2022-12-07T16:19:08.933Z,0.34
2022-12-07T16:21:39.713Z,0.27
2022-12-07T16:24:10.465Z,0.28
2022-12-07T16:26:46.327Z,0.28
2022-12-07T16:29:12.008Z,0.3
2022-12-07T16:31:42.865Z,0.31
2022-12-07T16:34:13.558Z,0.29
2022-12-07T16:37:04.887Z,0.3
2022-12-07T16:39:15.139Z,0.32
2022-12-07T16:41:45.921Z,0.32
2022-12-07T16:44:16.699Z,0.32
2022-12-07T16:46:47.577Z,0.33
2022-12-07T16:49:18.251Z,0.33
2022-12-07T16:51:52.351Z,0.34
2022-12-07T16:54:19.801Z,0.37
2022-12-07T16:56:50.577Z,0.36
2022-12-07T16:59:21.339Z,0.38
2022-12-07T17:01:52.115Z,0.38
2022-12-07T17:04:22.932Z,0.43
2022-12-07T17:06:53.685Z,0.36
2022-12-07T17:09:24.442Z,0.34
2022-12-07T17:11:55.229Z,0.33
2022-12-07T17:14:26.006Z,0.33
2022-12-07T17:16:56.890Z,0.33
2022-12-07T17:19:27.575Z,0.33
2022-12-07T17:21:58.371Z,0.31
2022-12-07T17:24:29.227Z,0.3
2022-12-07T17:26:59.944Z,0.3
2022-12-07T17:29:30.729Z,0.29
2022-12-07T17:32:01.580Z,0.29
2022-12-07T17:34:32.301Z,0.3
2022-12-07T17:37:03.105Z,0.31
2022-12-07T17:39:33.941Z,0.3
2022-12-07T17:42:04.687Z,0.29
2022-12-07T17:44:35.408Z,0.29
2022-12-07T17:47:06.264Z,0.28
2022-12-07T17:49:36.967Z,0.28
2022-12-07T17:52:07.773Z,0.26
2022-12-07T17:54:38.552Z,0.26
2022-12-07T17:57:09.334Z,0.24
2022-12-07T17:59:40.111Z,0.23
2022-12-07T18:02:10.913Z,0.24
2022-12-07T18:04:41.815Z,0.23
2022-12-07T18:07:12.491Z,0.24
2022-12-07T18:09:43.267Z,0.22
2022-12-07T18:12:14.067Z,0.21
2022-12-07T18:14:44.955Z,0.21
2022-12-07T18:17:15.642Z,0.22
2022-12-07T18:19:46.429Z,0.22
2022-12-07T18:22:17.240Z,0.21
2022-12-07T18:24:48.022Z,0.22
2022-12-07T18:27:18.923Z,0.21
2022-12-07T18:29:49.595Z,0.21
2022-12-07T18:32:20.519Z,0.21
2022-12-07T18:34:51.183Z,0.22
2022-12-07T18:37:21.982Z,0.21
2022-12-07T18:39:52.762Z,0.2
2022-12-07T18:42:23.568Z,0.21
2022-12-07T18:44:54.507Z,0.2
2022-12-07T18:47:25.142Z,0.21
2022-12-07T18:49:55.931Z,0.22
2022-12-07T18:52:26.775Z,0.21
2022-12-07T18:54:57.528Z,0.22
2022-12-07T18:57:28.317Z,0.23
2022-12-07T18:59:59.108Z,0.23
2022-12-07T19:02:29.950Z,0.23
2022-12-07T19:05:00.885Z,0.23
2022-12-07T19:07:31.515Z,0.24
2022-12-07T19:10:02.292Z,0.24
2022-12-07T19:12:33.166Z,0.24
2022-12-07T19:15:03.860Z,0.28
2022-12-07T19:17:34.398Z,0.25
2022-12-07T19:20:05.178Z,0.25
2022-12-07T19:22:35.994Z,0.24
2022-12-07T19:25:06.808Z,0.27
2022-12-07T19:27:37.560Z,0.26
2022-12-07T19:30:08.345Z,0.24
2022-12-07T19:32:39.140Z,0.26
2022-12-07T19:35:09.924Z,0.27
2022-12-07T19:37:40.816Z,0.25
2022-12-07T19:40:11.515Z,0.26
2022-12-07T19:42:42.094Z,0.26
2022-12-07T19:45:12.752Z,0.26
2022-12-07T19:47:43.553Z,0.26
2022-12-07T19:50:14.332Z,0.26
2022-12-07T19:52:45.147Z,0.26
2022-12-07T19:55:15.922Z,0.25
2022-12-07T19:57:46.783Z,0.25
2022-12-07T20:00:17.635Z,0.24
2022-12-07T20:02:48.470Z,0.24
2022-12-07T20:05:19.106Z,0.24
2022-12-07T20:07:49.995Z,0.24
2022-12-07T20:10:25.988Z,0.24
2022-12-07T20:12:51.529Z,0.25
2022-12-07T20:15:22.365Z,0.26
2022-12-07T20:17:53.155Z,0.26
2022-12-07T20:20:23.968Z,0.25
2022-12-07T20:22:54.809Z,0.25
2022-12-07T20:25:25.674Z,0.27
2022-12-07T20:27:56.418Z,0.28
2022-12-07T20:30:27.264Z,0.27
2022-12-07T20:32:58.053Z,0.27
2022-12-07T20:35:28.986Z,0.25
2022-12-07T20:37:59.705Z,0.26
2022-12-07T20:40:30.605Z,0.28
2022-12-07T20:43:01.345Z,0.25
2022-12-07T20:45:32.265Z,0.26
2022-12-07T20:48:03.006Z,0.26
2022-12-07T20:50:38.972Z,0.27
2022-12-07T20:53:04.387Z,0.25
2022-12-07T20:55:35.209Z,0.25
2022-12-07T20:58:06.026Z,0.26
2022-12-07T21:00:36.842Z,0.25
2022-12-07T21:03:07.677Z,0.25
2022-12-07T21:05:38.481Z,0.26
2022-12-07T21:08:09.420Z,0.26
2022-12-07T21:10:40.124Z,0.3
2022-12-07T21:13:10.948Z,0.28
2022-12-07T21:15:41.865Z,0.29
2022-12-07T21:18:12.604Z,0.29
2022-12-07T21:20:43.424Z,0.29
2022-12-07T21:23:14.267Z,0.29
2022-12-07T21:25:45.079Z,0.29
2022-12-07T21:28:15.923Z,0.29
2022-12-07T21:31:12.064Z,0.29
2022-12-07T21:33:17.293Z,0.31
2022-12-07T21:35:48.112Z,0.31
2022-12-07T21:38:19.023Z,0.31
2022-12-07T21:40:49.761Z,0.29
2022-12-07T21:43:20.618Z,0.29
2022-12-07T21:45:51.429Z,0.29
2022-12-07T21:48:21.912Z,0.3
2022-12-07T21:50:52.736Z,0.27
2022-12-07T21:53:23.592Z,0.27
2022-12-07T21:55:54.409Z,0.27
2022-12-07T21:58:25.240Z,0.27
2022-12-07T22:00:56.131Z,0.28
2022-12-07T22:03:26.916Z,0.27
2022-12-07T22:05:57.721Z,0.28
2022-12-07T22:08:28.632Z,0.29
2022-12-07T22:10:59.353Z,0.29
2022-12-07T22:13:30.188Z,0.29
2022-12-07T22:16:01.102Z,0.31
2022-12-07T22:18:31.837Z,0.29
2022-12-07T22:21:02.681Z,0.3
2022-12-07T22:23:32.972Z,0.35
2022-12-07T22:26:03.804Z,0.36
2022-12-07T22:28:34.720Z,0.32
2022-12-07T22:31:05.604Z,0.31
2022-12-07T22:33:36.426Z,0.34
2022-12-07T22:36:07.187Z,0.3
2022-12-07T22:38:37.995Z,0.29
2022-12-07T22:41:08.844Z,0.29
2022-12-07T22:43:39.696Z,0.29
2022-12-07T22:46:10.636Z,0.28
2022-12-07T22:48:41.407Z,0.27
2022-12-07T22:51:12.278Z,0.29
2022-12-07T22:53:42.785Z,0.29
2022-12-07T22:56:12.798Z,0.27
2022-12-07T22:58:43.379Z,0.28
2022-12-07T23:01:14.280Z,0.29
2022-12-07T23:03:45.140Z,0.29
2022-12-07T23:06:15.955Z,0.3
2022-12-07T23:08:46.796Z,0.31
2022-12-07T23:11:17.649Z,0.3
2022-12-07T23:13:48.502Z,0.32
2022-12-07T23:16:19.435Z,0.32
2022-12-07T23:18:50.197Z,0.3
2022-12-07T23:21:21.080Z,0.29
2022-12-07T23:23:51.903Z,0.29
2022-12-07T23:26:22.423Z,0.29
2022-12-07T23:28:52.414Z,0.3
2022-12-07T23:31:23.315Z,0.29
2022-12-07T23:33:53.262Z,0.3
2022-12-07T23:36:24.134Z,0.32
2022-12-07T23:38:54.955Z,0.3
2022-12-07T23:41:25.812Z,0.3
2022-12-07T23:43:56.661Z,0.28
2022-12-07T23:46:27.568Z,0.27
2022-12-07T23:48:58.420Z,0.27
2022-12-07T23:51:29.226Z,0.26
2022-12-07T23:54:00.039Z,0.24
2022-12-07T23:56:30.875Z,0.26
2022-12-07T23:59:01.712Z,0.25
